sensor_id;sensor_type;location;lat;lon;timestamp;P1;durP1;ratioP1;P2;durP2;ratioP2
80799;SDS011;70202;52.238;10.680;2023-08-21T00:00:05;1.63;;;0.98;;
80799;SDS011;70202;52.238;10.680;2023-08-21T00:01:07;0.68;;;0.65;;
80799;SDS011;70202;52.238;10.680;2023-08-21T00:02:07;0.82;;;0.68;;
80799;SDS011;70202;52.238;10.680;2023-08-21T00:03:08;1.73;;;0.95;;
80799;SDS011;70202;52.238;10.680;2023-08-21T00:04:08;0.73;;;0.70;;
80799;SDS011;70202;52.238;10.680;2023-08-21T00:05:09;1.13;;;0.88;;
80799;SDS011;70202;52.238;10.680;2023-08-21T00:06:10;1.42;;;0.98;;
80799;SDS011;70202;52.238;10.680;2023-08-21T00:07:10;2.03;;;0.90;;
80799;SDS011;70202;52.238;10.680;2023-08-21T00:08:11;0.95;;;0.68;;
80799;SDS011;70202;52.238;10.680;2023-08-21T00:09:11;1.98;;;0.95;;
80799;SDS011;70202;52.238;10.680;2023-08-21T00:10:12;1.73;;;0.85;;
80799;SDS011;70202;52.238;10.680;2023-08-21T00:11:14;1.58;;;0.82;;
80799;SDS011;70202;52.238;10.680;2023-08-21T00:12:14;1.20;;;0.90;;
80799;SDS011;70202;52.238;10.680;2023-08-21T00:13:14;1.50;;;0.80;;
80799;SDS011;70202;52.238;10.680;2023-08-21T00:14:15;0.88;;;0.85;;
80799;SDS011;70202;52.238;10.680;2023-08-21T00:15:15;1.60;;;0.85;;
80799;SDS011;70202;52.238;10.680;2023-08-21T00:16:16;1.45;;;0.90;;
80799;SDS011;70202;52.238;10.680;2023-08-21T00:17:17;1.42;;;1.00;;
80799;SDS011;70202;52.238;10.680;2023-08-21T00:18:17;0.82;;;0.82;;
80799;SDS011;70202;52.238;10.680;2023-08-21T00:19:17;1.13;;;0.80;;
80799;SDS011;70202;52.238;10.680;2023-08-21T00:20:18;1.30;;;0.90;;
80799;SDS011;70202;52.238;10.680;2023-08-21T00:21:19;1.08;;;0.80;;
80799;SDS011;70202;52.238;10.680;2023-08-21T00:22:20;1.92;;;0.85;;
80799;SDS011;70202;52.238;10.680;2023-08-21T00:23:20;1.67;;;1.00;;
80799;SDS011;70202;52.238;10.680;2023-08-21T00:24:21;1.77;;;0.95;;
80799;SDS011;70202;52.238;10.680;2023-08-21T00:25:21;1.15;;;0.80;;
80799;SDS011;70202;52.238;10.680;2023-08-21T00:26:22;0.75;;;0.70;;
80799;SDS011;70202;52.238;10.680;2023-08-21T00:27:22;1.83;;;1.00;;
80799;SDS011;70202;52.238;10.680;2023-08-21T00:28:23;1.08;;;0.80;;
80799;SDS011;70202;52.238;10.680;2023-08-21T00:29:23;1.10;;;0.80;;
80799;SDS011;70202;52.238;10.680;2023-08-21T00:30:23;1.30;;;0.80;;
80799;SDS011;70202;52.238;10.680;2023-08-21T00:31:24;1.17;;;0.90;;
80799;SDS011;70202;52.238;10.680;2023-08-21T00:32:24;1.48;;;0.90;;
80799;SDS011;70202;52.238;10.680;2023-08-21T00:33:24;1.15;;;0.70;;
80799;SDS011;70202;52.238;10.680;2023-08-21T00:34:25;1.00;;;0.65;;
80799;SDS011;70202;52.238;10.680;2023-08-21T00:35:25;1.00;;;0.75;;
80799;SDS011;70202;52.238;10.680;2023-08-21T00:36:25;1.17;;;0.90;;
80799;SDS011;70202;52.238;10.680;2023-08-21T00:37:26;1.17;;;1.00;;
80799;SDS011;70202;52.238;10.680;2023-08-21T00:38:26;1.73;;;1.00;;
80799;SDS011;70202;52.238;10.680;2023-08-21T00:39:27;0.93;;;0.70;;
80799;SDS011;70202;52.238;10.680;2023-08-21T00:40:27;1.08;;;0.90;;
80799;SDS011;70202;52.238;10.680;2023-08-21T00:41:27;1.55;;;1.00;;
80799;SDS011;70202;52.238;10.680;2023-08-21T00:42:28;1.30;;;1.00;;
80799;SDS011;70202;52.238;10.680;2023-08-21T00:43:28;1.58;;;1.00;;
80799;SDS011;70202;52.238;10.680;2023-08-21T00:44:28;1.08;;;0.85;;
80799;SDS011;70202;52.238;10.680;2023-08-21T00:45:29;1.63;;;1.05;;
80799;SDS011;70202;52.238;10.680;2023-08-21T00:46:30;1.40;;;1.00;;
80799;SDS011;70202;52.238;10.680;2023-08-21T00:47:31;1.15;;;0.80;;
80799;SDS011;70202;52.238;10.680;2023-08-21T00:48:32;1.77;;;1.10;;
80799;SDS011;70202;52.238;10.680;2023-08-21T00:49:33;1.33;;;0.85;;
80799;SDS011;70202;52.238;10.680;2023-08-21T00:50:34;1.63;;;0.90;;
80799;SDS011;70202;52.238;10.680;2023-08-21T00:51:34;1.38;;;0.90;;
80799;SDS011;70202;52.238;10.680;2023-08-21T00:52:35;1.25;;;0.90;;
80799;SDS011;70202;52.238;10.680;2023-08-21T00:53:36;1.50;;;0.95;;
80799;SDS011;70202;52.238;10.680;2023-08-21T00:54:36;1.95;;;1.15;;
80799;SDS011;70202;52.238;10.680;2023-08-21T00:55:37;1.10;;;0.90;;
80799;SDS011;70202;52.238;10.680;2023-08-21T00:56:38;1.85;;;1.10;;
80799;SDS011;70202;52.238;10.680;2023-08-21T00:57:39;1.48;;;0.90;;
80799;SDS011;70202;52.238;10.680;2023-08-21T00:58:40;0.80;;;0.80;;
80799;SDS011;70202;52.238;10.680;2023-08-21T00:59:40;1.02;;;0.90;;
80799;SDS011;70202;52.238;10.680;2023-08-21T01:00:41;1.52;;;0.90;;
80799;SDS011;70202;52.238;10.680;2023-08-21T01:01:45;1.27;;;0.90;;
80799;SDS011;70202;52.238;10.680;2023-08-21T01:02:45;1.23;;;0.82;;
80799;SDS011;70202;52.238;10.680;2023-08-21T01:03:46;0.90;;;0.70;;
80799;SDS011;70202;52.238;10.680;2023-08-21T01:04:46;2.05;;;1.05;;
80799;SDS011;70202;52.238;10.680;2023-08-21T01:05:46;1.77;;;1.20;;
80799;SDS011;70202;52.238;10.680;2023-08-21T01:06:50;1.83;;;1.17;;
80799;SDS011;70202;52.238;10.680;2023-08-21T01:07:58;1.65;;;1.00;;
80799;SDS011;70202;52.238;10.680;2023-08-21T01:09:10;1.13;;;0.93;;
80799;SDS011;70202;52.238;10.680;2023-08-21T01:10:22;1.65;;;1.05;;
80799;SDS011;70202;52.238;10.680;2023-08-21T01:15:33;1.70;;;0.95;;
80799;SDS011;70202;52.238;10.680;2023-08-21T01:16:34;1.40;;;1.00;;
80799;SDS011;70202;52.238;10.680;2023-08-21T01:17:37;1.23;;;0.93;;
80799;SDS011;70202;52.238;10.680;2023-08-21T01:18:38;1.88;;;1.20;;
80799;SDS011;70202;52.238;10.680;2023-08-21T01:19:43;1.33;;;0.98;;
80799;SDS011;70202;52.238;10.680;2023-08-21T01:20:46;1.95;;;1.08;;
80799;SDS011;70202;52.238;10.680;2023-08-21T01:21:48;1.40;;;1.00;;
80799;SDS011;70202;52.238;10.680;2023-08-21T01:22:48;1.52;;;0.98;;
80799;SDS011;70202;52.238;10.680;2023-08-21T01:23:50;1.67;;;1.02;;
80799;SDS011;70202;52.238;10.680;2023-08-21T01:24:50;2.20;;;1.02;;
80799;SDS011;70202;52.238;10.680;2023-08-21T01:25:51;1.15;;;0.90;;
80799;SDS011;70202;52.238;10.680;2023-08-21T01:26:51;2.00;;;1.10;;
80799;SDS011;70202;52.238;10.680;2023-08-21T01:27:51;1.80;;;1.10;;
80799;SDS011;70202;52.238;10.680;2023-08-21T01:28:53;1.60;;;0.95;;
80799;SDS011;70202;52.238;10.680;2023-08-21T01:29:53;1.65;;;1.13;;
80799;SDS011;70202;52.238;10.680;2023-08-21T01:30:58;1.90;;;1.20;;
80799;SDS011;70202;52.238;10.680;2023-08-21T01:33:35;1.02;;;0.82;;
80799;SDS011;70202;52.238;10.680;2023-08-21T01:34:42;1.20;;;0.88;;
80799;SDS011;70202;52.238;10.680;2023-08-21T01:35:43;1.60;;;1.10;;
80799;SDS011;70202;52.238;10.680;2023-08-21T01:36:43;1.30;;;1.02;;
80799;SDS011;70202;52.238;10.680;2023-08-21T01:37:45;1.45;;;1.00;;
80799;SDS011;70202;52.238;10.680;2023-08-21T01:38:47;1.65;;;1.08;;
80799;SDS011;70202;52.238;10.680;2023-08-21T01:39:47;1.70;;;1.10;;
80799;SDS011;70202;52.238;10.680;2023-08-21T01:40:48;1.33;;;1.00;;
80799;SDS011;70202;52.238;10.680;2023-08-21T01:41:48;1.50;;;1.10;;
80799;SDS011;70202;52.238;10.680;2023-08-21T01:42:48;1.70;;;1.00;;
80799;SDS011;70202;52.238;10.680;2023-08-21T01:43:49;1.80;;;1.10;;
80799;SDS011;70202;52.238;10.680;2023-08-21T01:44:49;2.30;;;1.10;;
80799;SDS011;70202;52.238;10.680;2023-08-21T01:45:49;1.10;;;0.90;;
80799;SDS011;70202;52.238;10.680;2023-08-21T01:46:50;1.45;;;1.00;;
80799;SDS011;70202;52.238;10.680;2023-08-21T01:47:50;2.05;;;1.23;;
80799;SDS011;70202;52.238;10.680;2023-08-21T01:48:51;2.15;;;1.15;;
80799;SDS011;70202;52.238;10.680;2023-08-21T01:49:51;1.80;;;1.13;;
80799;SDS011;70202;52.238;10.680;2023-08-21T01:50:52;1.90;;;1.10;;
80799;SDS011;70202;52.238;10.680;2023-08-21T01:51:52;1.90;;;1.00;;
80799;SDS011;70202;52.238;10.680;2023-08-21T01:52:53;1.50;;;1.00;;
80799;SDS011;70202;52.238;10.680;2023-08-21T01:53:53;1.92;;;1.20;;
80799;SDS011;70202;52.238;10.680;2023-08-21T01:54:53;2.08;;;1.08;;
80799;SDS011;70202;52.238;10.680;2023-08-21T01:55:54;1.80;;;1.10;;
80799;SDS011;70202;52.238;10.680;2023-08-21T01:56:54;1.42;;;1.10;;
80799;SDS011;70202;52.238;10.680;2023-08-21T01:57:54;2.30;;;1.20;;
80799;SDS011;70202;52.238;10.680;2023-08-21T01:58:55;1.65;;;1.08;;
80799;SDS011;70202;52.238;10.680;2023-08-21T01:59:55;2.30;;;1.17;;
80799;SDS011;70202;52.238;10.680;2023-08-21T02:00:56;1.83;;;1.17;;
80799;SDS011;70202;52.238;10.680;2023-08-21T02:01:56;1.65;;;1.20;;
80799;SDS011;70202;52.238;10.680;2023-08-21T02:08:42;0.68;;;0.68;;
80799;SDS011;70202;52.238;10.680;2023-08-21T02:10:52;1.50;;;1.00;;
80799;SDS011;70202;52.238;10.680;2023-08-21T02:11:53;2.30;;;1.00;;
80799;SDS011;70202;52.238;10.680;2023-08-21T02:12:53;1.70;;;1.10;;
80799;SDS011;70202;52.238;10.680;2023-08-21T02:13:54;1.95;;;1.10;;
80799;SDS011;70202;52.238;10.680;2023-08-21T02:14:54;1.70;;;1.00;;
80799;SDS011;70202;52.238;10.680;2023-08-21T02:15:55;1.50;;;0.90;;
80799;SDS011;70202;52.238;10.680;2023-08-21T02:16:55;2.08;;;1.00;;
80799;SDS011;70202;52.238;10.680;2023-08-21T02:17:56;1.20;;;0.95;;
80799;SDS011;70202;52.238;10.680;2023-08-21T02:18:56;1.13;;;0.80;;
80799;SDS011;70202;52.238;10.680;2023-08-21T02:19:57;1.30;;;0.95;;
80799;SDS011;70202;52.238;10.680;2023-08-21T02:20:57;1.25;;;0.85;;
80799;SDS011;70202;52.238;10.680;2023-08-21T02:21:58;1.52;;;1.10;;
80799;SDS011;70202;52.238;10.680;2023-08-21T02:22:58;1.60;;;1.10;;
80799;SDS011;70202;52.238;10.680;2023-08-21T02:23:59;2.83;;;1.27;;
80799;SDS011;70202;52.238;10.680;2023-08-21T02:24:59;1.23;;;0.90;;
80799;SDS011;70202;52.238;10.680;2023-08-21T02:25:59;1.48;;;0.90;;
80799;SDS011;70202;52.238;10.680;2023-08-21T02:27:00;1.88;;;1.00;;
80799;SDS011;70202;52.238;10.680;2023-08-21T02:28:00;1.23;;;0.93;;
80799;SDS011;70202;52.238;10.680;2023-08-21T02:29:02;1.77;;;1.00;;
80799;SDS011;70202;52.238;10.680;2023-08-21T02:30:03;1.20;;;0.75;;
80799;SDS011;70202;52.238;10.680;2023-08-21T02:31:04;1.73;;;1.02;;
80799;SDS011;70202;52.238;10.680;2023-08-21T02:32:05;1.92;;;1.10;;
80799;SDS011;70202;52.238;10.680;2023-08-21T02:33:05;1.55;;;0.95;;
80799;SDS011;70202;52.238;10.680;2023-08-21T02:34:05;1.38;;;0.85;;
80799;SDS011;70202;52.238;10.680;2023-08-21T02:35:07;1.63;;;1.08;;
80799;SDS011;70202;52.238;10.680;2023-08-21T02:36:08;1.58;;;1.02;;
80799;SDS011;70202;52.238;10.680;2023-08-21T02:37:08;1.50;;;1.00;;
80799;SDS011;70202;52.238;10.680;2023-08-21T02:38:09;2.63;;;1.20;;
80799;SDS011;70202;52.238;10.680;2023-08-21T02:39:09;1.27;;;0.90;;
80799;SDS011;70202;52.238;10.680;2023-08-21T02:40:09;1.90;;;1.00;;
80799;SDS011;70202;52.238;10.680;2023-08-21T02:41:10;2.00;;;1.00;;
80799;SDS011;70202;52.238;10.680;2023-08-21T02:42:10;1.60;;;1.00;;
80799;SDS011;70202;52.238;10.680;2023-08-21T02:43:10;1.40;;;1.00;;
80799;SDS011;70202;52.238;10.680;2023-08-21T02:44:11;1.10;;;0.98;;
80799;SDS011;70202;52.238;10.680;2023-08-21T02:45:11;2.05;;;1.00;;
80799;SDS011;70202;52.238;10.680;2023-08-21T02:46:12;1.35;;;0.93;;
80799;SDS011;70202;52.238;10.680;2023-08-21T02:47:12;1.15;;;0.85;;
80799;SDS011;70202;52.238;10.680;2023-08-21T02:48:12;1.08;;;0.90;;
80799;SDS011;70202;52.238;10.680;2023-08-21T02:49:13;1.60;;;1.08;;
80799;SDS011;70202;52.238;10.680;2023-08-21T02:50:13;1.48;;;0.90;;
80799;SDS011;70202;52.238;10.680;2023-08-21T02:51:14;1.30;;;0.88;;
80799;SDS011;70202;52.238;10.680;2023-08-21T02:52:14;1.52;;;1.05;;
80799;SDS011;70202;52.238;10.680;2023-08-21T02:53:14;1.67;;;1.02;;
80799;SDS011;70202;52.238;10.680;2023-08-21T02:54:15;1.58;;;0.88;;
80799;SDS011;70202;52.238;10.680;2023-08-21T02:55:15;1.00;;;0.77;;
80799;SDS011;70202;52.238;10.680;2023-08-21T02:56:16;1.35;;;0.93;;
80799;SDS011;70202;52.238;10.680;2023-08-21T02:57:16;1.33;;;0.90;;
80799;SDS011;70202;52.238;10.680;2023-08-21T02:58:16;1.63;;;1.05;;
80799;SDS011;70202;52.238;10.680;2023-08-21T02:59:17;2.25;;;1.17;;
80799;SDS011;70202;52.238;10.680;2023-08-21T03:00:17;1.90;;;1.10;;
80799;SDS011;70202;52.238;10.680;2023-08-21T03:01:17;1.48;;;0.90;;
80799;SDS011;70202;52.238;10.680;2023-08-21T03:02:18;1.00;;;0.90;;
80799;SDS011;70202;52.238;10.680;2023-08-21T03:03:19;1.60;;;1.10;;
80799;SDS011;70202;52.238;10.680;2023-08-21T03:04:19;1.33;;;0.80;;
80799;SDS011;70202;52.238;10.680;2023-08-21T03:05:20;0.82;;;0.70;;
80799;SDS011;70202;52.238;10.680;2023-08-21T03:06:20;1.25;;;0.90;;
80799;SDS011;70202;52.238;10.680;2023-08-21T03:07:21;0.95;;;0.75;;
80799;SDS011;70202;52.238;10.680;2023-08-21T03:08:21;1.17;;;0.98;;
80799;SDS011;70202;52.238;10.680;2023-08-21T03:09:21;1.77;;;1.05;;
80799;SDS011;70202;52.238;10.680;2023-08-21T03:10:22;1.13;;;0.82;;
80799;SDS011;70202;52.238;10.680;2023-08-21T03:11:26;1.45;;;0.93;;
80799;SDS011;70202;52.238;10.680;2023-08-21T03:12:27;1.83;;;1.10;;
80799;SDS011;70202;52.238;10.680;2023-08-21T03:13:27;1.13;;;0.80;;
80799;SDS011;70202;52.238;10.680;2023-08-21T03:14:27;1.52;;;0.85;;
80799;SDS011;70202;52.238;10.680;2023-08-21T03:15:28;1.55;;;0.90;;
80799;SDS011;70202;52.238;10.680;2023-08-21T03:16:29;1.35;;;0.80;;
80799;SDS011;70202;52.238;10.680;2023-08-21T03:17:29;1.98;;;1.23;;
80799;SDS011;70202;52.238;10.680;2023-08-21T03:18:30;1.40;;;0.93;;
80799;SDS011;70202;52.238;10.680;2023-08-21T03:19:31;1.48;;;1.00;;
80799;SDS011;70202;52.238;10.680;2023-08-21T03:20:32;2.15;;;0.95;;
80799;SDS011;70202;52.238;10.680;2023-08-21T03:21:32;1.52;;;1.00;;
80799;SDS011;70202;52.238;10.680;2023-08-21T03:22:32;1.10;;;0.85;;
80799;SDS011;70202;52.238;10.680;2023-08-21T03:23:33;1.92;;;1.13;;
80799;SDS011;70202;52.238;10.680;2023-08-21T03:24:33;1.20;;;0.90;;
80799;SDS011;70202;52.238;10.680;2023-08-21T03:25:34;1.70;;;0.93;;
80799;SDS011;70202;52.238;10.680;2023-08-21T03:26:34;1.70;;;1.10;;
80799;SDS011;70202;52.238;10.680;2023-08-21T03:27:34;2.25;;;1.17;;
80799;SDS011;70202;52.238;10.680;2023-08-21T03:28:39;1.65;;;1.00;;
80799;SDS011;70202;52.238;10.680;2023-08-21T03:29:39;1.13;;;0.80;;
80799;SDS011;70202;52.238;10.680;2023-08-21T03:30:40;1.40;;;1.00;;
80799;SDS011;70202;52.238;10.680;2023-08-21T03:31:40;1.85;;;1.10;;
80799;SDS011;70202;52.238;10.680;2023-08-21T03:32:41;1.90;;;1.10;;
80799;SDS011;70202;52.238;10.680;2023-08-21T03:33:41;1.90;;;1.08;;
80799;SDS011;70202;52.238;10.680;2023-08-21T03:34:42;1.60;;;1.20;;
80799;SDS011;70202;52.238;10.680;2023-08-21T03:35:43;1.40;;;1.00;;
80799;SDS011;70202;52.238;10.680;2023-08-21T03:36:43;1.85;;;1.10;;
80799;SDS011;70202;52.238;10.680;2023-08-21T03:37:44;2.35;;;1.10;;
80799;SDS011;70202;52.238;10.680;2023-08-21T03:38:44;1.35;;;1.02;;
80799;SDS011;70202;52.238;10.680;2023-08-21T03:39:45;1.67;;;1.10;;
80799;SDS011;70202;52.238;10.680;2023-08-21T03:40:45;2.13;;;1.10;;
80799;SDS011;70202;52.238;10.680;2023-08-21T03:41:46;1.95;;;1.10;;
80799;SDS011;70202;52.238;10.680;2023-08-21T03:42:46;1.73;;;1.10;;
80799;SDS011;70202;52.238;10.680;2023-08-21T03:43:47;1.70;;;1.05;;
80799;SDS011;70202;52.238;10.680;2023-08-21T03:44:47;2.03;;;1.20;;
80799;SDS011;70202;52.238;10.680;2023-08-21T03:45:50;1.65;;;1.05;;
80799;SDS011;70202;52.238;10.680;2023-08-21T03:46:50;1.75;;;1.20;;
80799;SDS011;70202;52.238;10.680;2023-08-21T03:47:50;1.65;;;1.10;;
80799;SDS011;70202;52.238;10.680;2023-08-21T03:48:51;1.70;;;1.08;;
80799;SDS011;70202;52.238;10.680;2023-08-21T03:49:52;1.83;;;1.00;;
80799;SDS011;70202;52.238;10.680;2023-08-21T03:50:52;1.75;;;1.10;;
80799;SDS011;70202;52.238;10.680;2023-08-21T03:51:52;1.63;;;1.10;;
80799;SDS011;70202;52.238;10.680;2023-08-21T03:52:53;2.03;;;1.15;;
80799;SDS011;70202;52.238;10.680;2023-08-21T03:53:53;2.50;;;1.23;;
80799;SDS011;70202;52.238;10.680;2023-08-21T03:54:53;2.03;;;1.20;;
80799;SDS011;70202;52.238;10.680;2023-08-21T03:55:54;2.13;;;1.10;;
80799;SDS011;70202;52.238;10.680;2023-08-21T03:56:54;2.00;;;1.10;;
80799;SDS011;70202;52.238;10.680;2023-08-21T03:57:55;1.60;;;1.10;;
80799;SDS011;70202;52.238;10.680;2023-08-21T03:58:55;1.95;;;1.10;;
80799;SDS011;70202;52.238;10.680;2023-08-21T03:59:56;2.50;;;1.10;;
80799;SDS011;70202;52.238;10.680;2023-08-21T04:00:56;1.70;;;1.00;;
80799;SDS011;70202;52.238;10.680;2023-08-21T04:01:56;1.67;;;1.15;;
80799;SDS011;70202;52.238;10.680;2023-08-21T04:02:57;2.33;;;1.10;;
80799;SDS011;70202;52.238;10.680;2023-08-21T04:03:58;1.55;;;1.10;;
80799;SDS011;70202;52.238;10.680;2023-08-21T04:04:58;1.42;;;1.02;;
80799;SDS011;70202;52.238;10.680;2023-08-21T04:05:59;1.65;;;1.10;;
80799;SDS011;70202;52.238;10.680;2023-08-21T04:07:01;2.15;;;1.20;;
80799;SDS011;70202;52.238;10.680;2023-08-21T04:08:01;1.25;;;1.00;;
80799;SDS011;70202;52.238;10.680;2023-08-21T04:09:02;2.58;;;1.20;;
80799;SDS011;70202;52.238;10.680;2023-08-21T04:10:06;1.45;;;1.00;;
80799;SDS011;70202;52.238;10.680;2023-08-21T04:11:06;1.50;;;1.00;;
80799;SDS011;70202;52.238;10.680;2023-08-21T04:12:07;1.85;;;1.20;;
80799;SDS011;70202;52.238;10.680;2023-08-21T04:13:07;1.92;;;1.00;;
80799;SDS011;70202;52.238;10.680;2023-08-21T04:14:08;1.80;;;1.00;;
80799;SDS011;70202;52.238;10.680;2023-08-21T04:15:08;1.95;;;1.10;;
80799;SDS011;70202;52.238;10.680;2023-08-21T04:16:09;2.22;;;1.20;;
80799;SDS011;70202;52.238;10.680;2023-08-21T04:17:10;2.03;;;0.90;;
80799;SDS011;70202;52.238;10.680;2023-08-21T04:18:11;1.58;;;0.98;;
80799;SDS011;70202;52.238;10.680;2023-08-21T04:19:11;1.55;;;1.05;;
80799;SDS011;70202;52.238;10.680;2023-08-21T04:20:11;1.80;;;1.10;;
80799;SDS011;70202;52.238;10.680;2023-08-21T04:21:12;1.55;;;1.00;;
80799;SDS011;70202;52.238;10.680;2023-08-21T04:22:12;1.85;;;1.00;;
80799;SDS011;70202;52.238;10.680;2023-08-21T04:23:13;2.40;;;1.10;;
80799;SDS011;70202;52.238;10.680;2023-08-21T04:24:14;1.80;;;1.10;;
80799;SDS011;70202;52.238;10.680;2023-08-21T04:25:14;1.75;;;1.02;;
80799;SDS011;70202;52.238;10.680;2023-08-21T04:26:15;1.40;;;0.98;;
80799;SDS011;70202;52.238;10.680;2023-08-21T04:27:15;1.58;;;0.85;;
80799;SDS011;70202;52.238;10.680;2023-08-21T04:28:16;2.13;;;1.10;;
80799;SDS011;70202;52.238;10.680;2023-08-21T04:29:16;1.45;;;0.95;;
80799;SDS011;70202;52.238;10.680;2023-08-21T04:30:17;2.22;;;1.00;;
80799;SDS011;70202;52.238;10.680;2023-08-21T04:31:17;1.02;;;0.90;;
80799;SDS011;70202;52.238;10.680;2023-08-21T04:32:18;2.30;;;1.13;;
80799;SDS011;70202;52.238;10.680;2023-08-21T04:33:18;1.45;;;0.93;;
80799;SDS011;70202;52.238;10.680;2023-08-21T04:34:18;1.50;;;1.00;;
80799;SDS011;70202;52.238;10.680;2023-08-21T04:35:19;2.17;;;1.15;;
80799;SDS011;70202;52.238;10.680;2023-08-21T04:36:19;2.15;;;1.10;;
80799;SDS011;70202;52.238;10.680;2023-08-21T04:37:19;2.10;;;1.00;;
80799;SDS011;70202;52.238;10.680;2023-08-21T04:38:20;1.77;;;1.00;;
80799;SDS011;70202;52.238;10.680;2023-08-21T04:39:21;1.92;;;1.00;;
80799;SDS011;70202;52.238;10.680;2023-08-21T04:40:23;2.17;;;1.10;;
80799;SDS011;70202;52.238;10.680;2023-08-21T04:41:24;2.40;;;1.10;;
80799;SDS011;70202;52.238;10.680;2023-08-21T04:42:25;2.63;;;1.27;;
80799;SDS011;70202;52.238;10.680;2023-08-21T04:43:25;2.67;;;1.20;;
80799;SDS011;70202;52.238;10.680;2023-08-21T04:44:25;1.80;;;1.20;;
80799;SDS011;70202;52.238;10.680;2023-08-21T04:45:26;1.40;;;0.95;;
80799;SDS011;70202;52.238;10.680;2023-08-21T04:46:26;1.27;;;1.00;;
80799;SDS011;70202;52.238;10.680;2023-08-21T04:47:27;1.50;;;1.10;;
80799;SDS011;70202;52.238;10.680;2023-08-21T04:48:27;1.38;;;0.95;;
80799;SDS011;70202;52.238;10.680;2023-08-21T04:49:27;2.63;;;1.20;;
80799;SDS011;70202;52.238;10.680;2023-08-21T04:50:28;2.05;;;1.20;;
80799;SDS011;70202;52.238;10.680;2023-08-21T04:51:28;2.17;;;1.30;;
80799;SDS011;70202;52.238;10.680;2023-08-21T04:52:29;1.35;;;1.05;;
80799;SDS011;70202;52.238;10.680;2023-08-21T04:53:29;2.03;;;1.08;;
80799;SDS011;70202;52.238;10.680;2023-08-21T04:54:30;1.65;;;1.15;;
80799;SDS011;70202;52.238;10.680;2023-08-21T04:55:30;1.83;;;1.10;;
80799;SDS011;70202;52.238;10.680;2023-08-21T04:56:31;1.60;;;1.00;;
80799;SDS011;70202;52.238;10.680;2023-08-21T04:57:31;1.73;;;1.00;;
80799;SDS011;70202;52.238;10.680;2023-08-21T04:58:31;1.98;;;1.20;;
80799;SDS011;70202;52.238;10.680;2023-08-21T04:59:33;2.80;;;1.10;;
80799;SDS011;70202;52.238;10.680;2023-08-21T05:00:35;1.80;;;0.90;;
80799;SDS011;70202;52.238;10.680;2023-08-21T05:01:35;1.67;;;1.23;;
80799;SDS011;70202;52.238;10.680;2023-08-21T05:02:35;1.40;;;1.10;;
80799;SDS011;70202;52.238;10.680;2023-08-21T05:03:36;2.33;;;1.20;;
80799;SDS011;70202;52.238;10.680;2023-08-21T05:04:36;2.15;;;1.10;;
80799;SDS011;70202;52.238;10.680;2023-08-21T05:05:37;1.52;;;1.13;;
80799;SDS011;70202;52.238;10.680;2023-08-21T05:06:37;1.88;;;1.10;;
80799;SDS011;70202;52.238;10.680;2023-08-21T05:07:38;1.52;;;1.20;;
80799;SDS011;70202;52.238;10.680;2023-08-21T05:08:38;1.80;;;1.20;;
80799;SDS011;70202;52.238;10.680;2023-08-21T05:09:38;1.50;;;1.10;;
80799;SDS011;70202;52.238;10.680;2023-08-21T05:10:39;1.60;;;1.13;;
80799;SDS011;70202;52.238;10.680;2023-08-21T05:11:39;1.90;;;1.20;;
80799;SDS011;70202;52.238;10.680;2023-08-21T05:12:39;2.00;;;1.10;;
80799;SDS011;70202;52.238;10.680;2023-08-21T05:13:40;2.05;;;1.08;;
80799;SDS011;70202;52.238;10.680;2023-08-21T05:14:40;2.22;;;1.20;;
80799;SDS011;70202;52.238;10.680;2023-08-21T05:15:41;2.30;;;1.30;;
80799;SDS011;70202;52.238;10.680;2023-08-21T05:16:41;1.95;;;1.20;;
80799;SDS011;70202;52.238;10.680;2023-08-21T05:17:41;2.42;;;1.10;;
80799;SDS011;70202;52.238;10.680;2023-08-21T05:18:42;2.60;;;1.48;;
80799;SDS011;70202;52.238;10.680;2023-08-21T05:19:42;2.30;;;1.33;;
80799;SDS011;70202;52.238;10.680;2023-08-21T05:20:43;1.88;;;1.20;;
80799;SDS011;70202;52.238;10.680;2023-08-21T05:21:43;1.95;;;1.33;;
80799;SDS011;70202;52.238;10.680;2023-08-21T05:22:44;2.38;;;1.15;;
80799;SDS011;70202;52.238;10.680;2023-08-21T05:23:44;2.45;;;1.50;;
80799;SDS011;70202;52.238;10.680;2023-08-21T05:24:45;1.83;;;1.27;;
80799;SDS011;70202;52.238;10.680;2023-08-21T05:25:46;2.22;;;1.20;;
80799;SDS011;70202;52.238;10.680;2023-08-21T05:26:47;2.78;;;1.38;;
80799;SDS011;70202;52.238;10.680;2023-08-21T05:27:48;2.05;;;1.30;;
80799;SDS011;70202;52.238;10.680;2023-08-21T05:28:48;1.83;;;1.20;;
80799;SDS011;70202;52.238;10.680;2023-08-21T05:29:49;2.40;;;1.40;;
80799;SDS011;70202;52.238;10.680;2023-08-21T05:30:51;1.60;;;1.20;;
80799;SDS011;70202;52.238;10.680;2023-08-21T05:31:51;2.92;;;1.30;;
80799;SDS011;70202;52.238;10.680;2023-08-21T05:32:52;2.42;;;1.38;;
80799;SDS011;70202;52.238;10.680;2023-08-21T05:33:52;2.17;;;1.13;;
80799;SDS011;70202;52.238;10.680;2023-08-21T05:34:52;2.63;;;1.40;;
80799;SDS011;70202;52.238;10.680;2023-08-21T05:35:53;2.22;;;1.45;;
80799;SDS011;70202;52.238;10.680;2023-08-21T05:36:53;2.25;;;1.35;;
80799;SDS011;70202;52.238;10.680;2023-08-21T05:37:54;1.92;;;1.20;;
80799;SDS011;70202;52.238;10.680;2023-08-21T05:38:56;2.60;;;1.30;;
80799;SDS011;70202;52.238;10.680;2023-08-21T05:39:57;2.42;;;1.30;;
80799;SDS011;70202;52.238;10.680;2023-08-21T05:40:57;2.38;;;1.40;;
80799;SDS011;70202;52.238;10.680;2023-08-21T05:41:58;1.70;;;1.20;;
80799;SDS011;70202;52.238;10.680;2023-08-21T05:42:58;2.70;;;1.50;;
80799;SDS011;70202;52.238;10.680;2023-08-21T05:43:59;2.40;;;1.30;;
80799;SDS011;70202;52.238;10.680;2023-08-21T05:44:59;2.67;;;1.40;;
80799;SDS011;70202;52.238;10.680;2023-08-21T05:46:00;3.40;;;1.60;;
80799;SDS011;70202;52.238;10.680;2023-08-21T05:47:00;2.45;;;1.45;;
80799;SDS011;70202;52.238;10.680;2023-08-21T05:48:00;1.83;;;1.20;;
80799;SDS011;70202;52.238;10.680;2023-08-21T05:49:01;2.75;;;1.48;;
80799;SDS011;70202;52.238;10.680;2023-08-21T05:50:01;2.40;;;1.30;;
80799;SDS011;70202;52.238;10.680;2023-08-21T05:51:02;2.35;;;1.23;;
80799;SDS011;70202;52.238;10.680;2023-08-21T05:52:02;2.25;;;1.35;;
80799;SDS011;70202;52.238;10.680;2023-08-21T05:53:03;2.03;;;1.27;;
80799;SDS011;70202;52.238;10.680;2023-08-21T05:54:04;2.30;;;1.13;;
80799;SDS011;70202;52.238;10.680;2023-08-21T05:55:04;2.67;;;1.30;;
80799;SDS011;70202;52.238;10.680;2023-08-21T05:56:05;3.47;;;1.48;;
80799;SDS011;70202;52.238;10.680;2023-08-21T05:57:06;2.70;;;1.30;;
80799;SDS011;70202;52.238;10.680;2023-08-21T05:58:06;1.95;;;1.40;;
80799;SDS011;70202;52.238;10.680;2023-08-21T05:59:09;1.90;;;1.27;;
80799;SDS011;70202;52.238;10.680;2023-08-21T06:00:10;2.35;;;1.40;;
80799;SDS011;70202;52.238;10.680;2023-08-21T06:01:12;2.00;;;1.30;;
80799;SDS011;70202;52.238;10.680;2023-08-21T06:02:13;1.77;;;1.20;;
80799;SDS011;70202;52.238;10.680;2023-08-21T06:03:14;1.85;;;1.25;;
80799;SDS011;70202;52.238;10.680;2023-08-21T06:04:14;2.40;;;1.30;;
80799;SDS011;70202;52.238;10.680;2023-08-21T06:05:15;1.95;;;1.20;;
80799;SDS011;70202;52.238;10.680;2023-08-21T06:06:15;2.53;;;1.55;;
80799;SDS011;70202;52.238;10.680;2023-08-21T06:07:16;2.33;;;1.40;;
80799;SDS011;70202;52.238;10.680;2023-08-21T06:08:16;2.50;;;1.33;;
80799;SDS011;70202;52.238;10.680;2023-08-21T06:09:18;2.08;;;1.30;;
80799;SDS011;70202;52.238;10.680;2023-08-21T06:10:19;1.80;;;1.20;;
80799;SDS011;70202;52.238;10.680;2023-08-21T06:11:19;2.03;;;1.25;;
80799;SDS011;70202;52.238;10.680;2023-08-21T06:12:20;2.30;;;1.30;;